Terminal Aerodrome Forecast
Issued by NWS

Home | Current Version | Previous Version | Text Only | Print | Product List | Glossary On
Versions: 1 2 3 4 5 6 7 8 9 10 11 12 13 14
000
FTUS44 KLZK 270531
TAFHOT
TAF
KHOT 270531Z 2706/2806 VRB03KT P6SM BKN120 BKN250
     FM271000 VRB05KT P6SM SCT120 BKN250
      TEMPO 2710/2714 5SM BR
     FM271700 14008KT P6SM BKN250
     FM280000 12004KT P6SM SCT250=

USA.gov is the U.S. government's official web portal to all federal, state and local government web resources and services.